createdAt,value
2022-11-09T00:01:41.542Z,98174.75
2022-11-09T00:04:08.376Z,98181.44
2022-11-09T00:06:35.946Z,98170.59
2022-11-09T00:09:07.785Z,98176.75
2022-11-09T00:11:34.541Z,98174.16
2022-11-09T00:14:00.961Z,98167.34
2022-11-09T00:16:27.423Z,98169.69
2022-11-09T00:18:53.916Z,98180.16
2022-11-09T00:21:23.228Z,98177.94
2022-11-09T00:23:50.995Z,98180.69
2022-11-09T00:26:18.773Z,98182.31
2022-11-09T00:28:45.634Z,98183.84
2022-11-09T00:31:14.849Z,98194.03
2022-11-09T00:33:41.540Z,98194.03
2022-11-09T00:36:11.358Z,98201.59
2022-11-09T00:38:40.332Z,98199.91
2022-11-09T00:41:08.712Z,98204.72
2022-11-09T00:43:35.176Z,98212.59
2022-11-09T00:46:01.712Z,98221.97
2022-11-09T00:48:28.394Z,98216.59
2022-11-09T00:50:56.528Z,98219.84
2022-11-09T00:53:24.024Z,98224.16
2022-11-09T00:56:11.607Z,98218.03
2022-11-09T00:58:38.812Z,98210.28
2022-11-09T01:01:14.424Z,98211.56
2022-11-09T01:03:41.690Z,98208.81
2022-11-09T01:06:09.102Z,98209.09
2022-11-09T01:08:35.773Z,98216.88
2022-11-09T01:11:09.442Z,98212.63
2022-11-09T01:13:37.470Z,98217.41
2022-11-09T01:16:12.372Z,98229.16
2022-11-09T01:18:39.539Z,98240.59
2022-11-09T01:21:09.486Z,98242.75
2022-11-09T01:23:36.370Z,98255.59
2022-11-09T01:26:05.923Z,98268.16
2022-11-09T01:28:32.491Z,98254.13
2022-11-09T01:31:04.850Z,98260.66
2022-11-09T01:33:31.915Z,98258.91
2022-11-09T01:36:06.457Z,98248.81
2022-11-09T01:38:32.956Z,98250.94
2022-11-09T01:40:59.605Z,98258.56
2022-11-09T01:43:26.082Z,98270.34
2022-11-09T01:46:01.192Z,98249.91
2022-11-09T01:48:40.379Z,98247.59
2022-11-09T01:51:12.719Z,98251.16
2022-11-09T01:53:44.031Z,98240.06
2022-11-09T01:56:13.602Z,98239.00
2022-11-09T01:58:58.429Z,98239.75
2022-11-09T02:01:25.570Z,98238.38
2022-11-09T02:03:56.986Z,98241.19
2022-11-09T02:06:27.349Z,98245.72
2022-11-09T02:08:58.452Z,98246.50
2022-11-09T02:11:27.371Z,98257.03
2022-11-09T02:13:58.235Z,98247.25
2022-11-09T02:16:24.960Z,98248.91
2022-11-09T02:18:57.442Z,98251.66
2022-11-09T02:21:27.086Z,98243.88
2022-11-09T02:23:53.700Z,98238.75
2022-11-09T02:26:41.358Z,98239.25
2022-11-09T02:29:09.967Z,98248.41
2022-11-09T02:31:42.233Z,98263.06
2022-11-09T02:34:13.304Z,98278.03
2022-11-09T02:36:39.709Z,98285.47
2022-11-09T02:39:06.876Z,98282.34
2022-11-09T02:41:40.581Z,98294.41
2022-11-09T02:44:07.004Z,98299.41
2022-11-09T02:46:35.987Z,98302.22
2022-11-09T02:49:03.958Z,98295.44
2022-11-09T02:51:30.488Z,98299.91
2022-11-09T02:53:56.903Z,98298.03
2022-11-09T02:56:23.851Z,98277.09
2022-11-09T02:58:50.877Z,98283.47
2022-11-09T03:01:17.388Z,98283.28
2022-11-09T03:03:43.927Z,98274.47
2022-11-09T03:06:10.388Z,98310.84
2022-11-09T03:08:36.871Z,98297.91
2022-11-09T03:11:03.694Z,98291.75
2022-11-09T03:13:30.109Z,98295.19
2022-11-09T03:15:56.500Z,98278.72
2022-11-09T03:18:23.074Z,98283.09
2022-11-09T03:20:49.563Z,98291.84
2022-11-09T03:23:16.073Z,98299.78
2022-11-09T03:25:42.523Z,98293.72
2022-11-09T03:28:08.968Z,98299.00
2022-11-09T03:30:35.581Z,98295.75
2022-11-09T03:33:05.029Z,98291.19
2022-11-09T03:35:31.555Z,98302.03
2022-11-09T03:37:57.989Z,98291.78
2022-11-09T03:40:24.505Z,98280.16
2022-11-09T03:42:50.938Z,98275.78
2022-11-09T03:45:17.447Z,98280.81
2022-11-09T03:47:45.156Z,98284.06
2022-11-09T03:50:12.685Z,98283.66
2022-11-09T03:52:39.602Z,98280.84
2022-11-09T03:55:06.806Z,98282.09
2022-11-09T03:57:33.228Z,98280.84
2022-11-09T03:59:59.679Z,98284.13
2022-11-09T04:02:26.177Z,98282.59
2022-11-09T04:04:52.648Z,98288.63
2022-11-09T04:07:19.188Z,98283.09
2022-11-09T04:09:45.610Z,98289.13
2022-11-09T04:12:12.011Z,98282.91
2022-11-09T04:14:38.407Z,98288.13
2022-11-09T04:17:04.903Z,98278.03
2022-11-09T04:19:31.320Z,98270.69
2022-11-09T04:21:57.757Z,98285.81
2022-11-09T04:24:24.195Z,98280.06
2022-11-09T04:26:50.602Z,98296.41
2022-11-09T04:29:17.142Z,98292.34
2022-11-09T04:31:43.535Z,98302.59
2022-11-09T04:34:09.916Z,98293.97
2022-11-09T04:36:36.328Z,98294.13
2022-11-09T04:39:02.728Z,98293.00
2022-11-09T04:41:29.119Z,98290.56
2022-11-09T04:43:55.513Z,98292.53
2022-11-09T04:46:22.037Z,98290.06
2022-11-09T04:48:48.510Z,98289.97
2022-11-09T04:51:15.113Z,98276.75
2022-11-09T04:53:41.658Z,98274.16
2022-11-09T04:56:08.397Z,98273.97
2022-11-09T04:58:35.120Z,98277.41
2022-11-09T05:01:06.513Z,98276.25
2022-11-09T05:03:33.676Z,98261.28
2022-11-09T05:06:00.264Z,98281.22
2022-11-09T05:08:26.931Z,98263.22
2022-11-09T05:10:57.821Z,98272.34
2022-11-09T05:13:24.223Z,98278.84
2022-11-09T05:15:50.670Z,98279.25
2022-11-09T05:18:17.065Z,98271.28
2022-11-09T05:20:43.439Z,98271.28
2022-11-09T05:23:28.221Z,98270.69
2022-11-09T05:25:54.650Z,98275.53
2022-11-09T05:28:21.117Z,98273.47
2022-11-09T05:30:47.523Z,98284.28
2022-11-09T05:33:14.747Z,98290.47
2022-11-09T05:35:41.134Z,98292.34
2022-11-09T05:38:07.537Z,98286.66
2022-11-09T05:40:34.694Z,98287.78
2022-11-09T05:43:01.119Z,98293.16
2022-11-09T05:45:41.917Z,98296.75
2022-11-09T05:48:10.144Z,98295.28
2022-11-09T05:50:37.525Z,98305.06
2022-11-09T05:53:04.036Z,98317.91
2022-11-09T05:55:30.466Z,98311.72
2022-11-09T05:57:56.887Z,98316.34
2022-11-09T06:00:23.447Z,98314.81
2022-11-09T06:02:50.199Z,98314.06
2022-11-09T06:05:16.953Z,98314.19
2022-11-09T06:07:43.462Z,98313.38
2022-11-09T06:10:11.012Z,98309.63
2022-11-09T06:12:37.471Z,98322.00
2022-11-09T06:15:05.369Z,98331.28
2022-11-09T06:17:31.827Z,98334.47
2022-11-09T06:19:58.230Z,98339.53
2022-11-09T06:22:24.684Z,98342.66
2022-11-09T06:24:51.171Z,98352.91
2022-11-09T06:27:17.651Z,98345.69
2022-11-09T06:29:44.054Z,98349.03
2022-11-09T06:32:10.463Z,98357.06
2022-11-09T06:34:36.867Z,98361.81
2022-11-09T06:37:03.251Z,98368.00
2022-11-09T06:39:29.658Z,98376.84
2022-11-09T06:41:56.102Z,98372.13
2022-11-09T06:44:22.523Z,98375.41
2022-11-09T06:46:48.939Z,98385.06
2022-11-09T06:49:15.382Z,98376.69
2022-11-09T06:51:41.771Z,98387.09
2022-11-09T06:54:08.170Z,98386.63
2022-11-09T06:56:34.821Z,98393.97
2022-11-09T06:59:01.234Z,98393.84
2022-11-09T07:01:29.207Z,98389.31
2022-11-09T07:03:56.212Z,98383.19
2022-11-09T07:06:23.061Z,98388.66
2022-11-09T07:08:49.570Z,98391.84
2022-11-09T07:11:16.827Z,98385.31
2022-11-09T07:13:43.276Z,98398.75
2022-11-09T07:16:12.052Z,98395.56
2022-11-09T07:18:38.713Z,98386.78
2022-11-09T07:21:11.438Z,98388.75
2022-11-09T07:23:40.724Z,98399.00
2022-11-09T07:26:07.201Z,98391.94
2022-11-09T07:28:34.072Z,98390.88
2022-11-09T07:31:01.032Z,98385.97
2022-11-09T07:33:30.324Z,98372.47
2022-11-09T07:35:58.927Z,98386.97
2022-11-09T07:38:25.696Z,98386.38
2022-11-09T07:40:52.153Z,98395.25
2022-11-09T07:43:19.295Z,98391.50
2022-11-09T07:45:46.161Z,98389.97
2022-11-09T07:48:14.281Z,98398.03
2022-11-09T07:50:41.695Z,98408.19
2022-11-09T07:53:10.498Z,98409.81
2022-11-09T07:55:36.955Z,98415.59
2022-11-09T07:58:06.947Z,98414.16
2022-11-09T08:00:35.300Z,98417.06
2022-11-09T08:03:01.779Z,98420.34
2022-11-09T08:05:28.822Z,98416.56
2022-11-09T08:07:58.814Z,98409.50
2022-11-09T08:10:26.745Z,98402.63
2022-11-09T08:12:58.461Z,98398.75
2022-11-09T08:15:25.906Z,98400.13
2022-11-09T08:17:52.762Z,98393.59
2022-11-09T08:20:20.224Z,98393.59
2022-11-09T08:22:47.561Z,98402.72
2022-11-09T08:25:14.945Z,98392.00
2022-11-09T08:27:41.661Z,98396.19
2022-11-09T08:30:12.916Z,98403.97
2022-11-09T08:32:39.728Z,98402.53
2022-11-09T08:35:10.172Z,98399.59
2022-11-09T08:37:38.202Z,98403.34
2022-11-09T08:40:06.612Z,98389.59
2022-11-09T08:42:33.192Z,98398.69
2022-11-09T08:44:59.606Z,98407.63
2022-11-09T08:47:26.114Z,98407.13
2022-11-09T08:49:52.509Z,98403.06
2022-11-09T08:52:18.943Z,98402.56
2022-11-09T08:54:45.409Z,98391.72
2022-11-09T08:57:12.469Z,98400.56
2022-11-09T08:59:38.932Z,98397.13
2022-11-09T09:02:05.870Z,98406.06
2022-11-09T09:04:32.385Z,98404.44
2022-11-09T09:07:00.257Z,98409.19
2022-11-09T09:09:27.269Z,98407.38
2022-11-09T09:11:53.746Z,98407.69
2022-11-09T09:14:20.258Z,98410.72
2022-11-09T09:16:46.689Z,98412.66
2022-11-09T09:19:13.191Z,98418.31
2022-11-09T09:21:39.658Z,98426.50
2022-11-09T09:24:06.242Z,98428.66
2022-11-09T09:26:32.840Z,98422.84
2022-11-09T09:28:59.247Z,98427.50
2022-11-09T09:31:25.683Z,98423.28
2022-11-09T09:33:52.239Z,98422.06
2022-11-09T09:36:20.825Z,98423.00
2022-11-09T09:38:50.598Z,98430.91
2022-11-09T09:41:37.209Z,98432.63
2022-11-09T09:44:31.717Z,98430.91
2022-11-09T09:47:04.111Z,98438.22
2022-11-09T09:49:34.557Z,98447.59
2022-11-09T09:52:17.876Z,98447.47
2022-11-09T09:55:05.556Z,98460.91
2022-11-09T09:57:35.452Z,98460.59
2022-11-09T10:00:07.940Z,98457.84
2022-11-09T10:02:37.553Z,98463.28
2022-11-09T10:05:12.075Z,98463.47
2022-11-09T10:07:53.876Z,98460.06
2022-11-09T10:11:05.571Z,98460.13
2022-11-09T10:13:57.140Z,98452.06
2022-11-09T10:16:27.751Z,98444.03
2022-11-09T10:19:06.337Z,98448.09
2022-11-09T10:21:41.757Z,98436.81
2022-11-09T10:24:17.504Z,98429.59
2022-11-09T10:26:49.387Z,98432.44
2022-11-09T10:29:23.093Z,98417.53
2022-11-09T10:31:52.995Z,98418.19
2022-11-09T10:34:44.167Z,98422.06
2022-11-09T10:37:16.210Z,98420.31
2022-11-09T10:39:50.686Z,98420.09
2022-11-09T10:42:17.131Z,98418.50
2022-11-09T10:44:43.608Z,98418.00
2022-11-09T10:47:13.364Z,98414.84
2022-11-09T10:49:40.899Z,98418.34
2022-11-09T10:52:44.160Z,98408.16
2022-11-09T10:55:28.380Z,98420.25
2022-11-09T10:58:04.799Z,98408.88
2022-11-09T11:00:33.298Z,98409.38
2022-11-09T11:03:11.175Z,98410.47
2022-11-09T11:05:38.960Z,98408.88
2022-11-09T11:08:31.277Z,98403.41
2022-11-09T11:11:32.853Z,98407.59
2022-11-09T11:14:19.984Z,98408.97
2022-11-09T11:16:50.833Z,98400.72
2022-11-09T11:19:26.424Z,98391.47
2022-11-09T11:22:10.895Z,98380.78
2022-11-09T11:25:11.508Z,98376.75
2022-11-09T11:27:43.966Z,98377.38
2022-11-09T11:30:15.758Z,98375.84
2022-11-09T11:32:47.250Z,98378.03
2022-11-09T11:35:36.292Z,98374.25
2022-11-09T11:38:21.924Z,98362.44
2022-11-09T11:41:03.870Z,98368.34
2022-11-09T11:43:53.366Z,98366.72
2022-11-09T11:46:38.166Z,98366.25
2022-11-09T11:49:34.268Z,98364.59
2022-11-09T11:52:12.628Z,98362.72
2022-11-09T11:54:42.155Z,98369.44
2022-11-09T11:57:31.542Z,98370.28
2022-11-09T12:00:15.275Z,98371.06
2022-11-09T12:03:08.245Z,98365.22
2022-11-09T12:05:43.710Z,98361.19
2022-11-09T12:08:25.511Z,98366.34
2022-11-09T12:11:21.540Z,98360.91
2022-11-09T12:14:08.642Z,98354.44
2022-11-09T12:16:45.980Z,98365.28
2022-11-09T12:19:45.403Z,98366.25
2022-11-09T12:22:32.904Z,98360.28
2022-11-09T12:25:27.719Z,98366.25
2022-11-09T12:28:01.487Z,98356.09
2022-11-09T12:31:06.304Z,98375.44
2022-11-09T12:33:45.204Z,98365.22
2022-11-09T12:36:18.849Z,98357.94
2022-11-09T12:38:58.733Z,98367.59
2022-11-09T12:41:30.072Z,98363.00
2022-11-09T12:44:15.921Z,98362.50
2022-11-09T12:46:50.043Z,98362.50
2022-11-09T12:49:33.547Z,98367.34
2022-11-09T12:52:00.239Z,98362.50
2022-11-09T12:54:27.612Z,98363.56
2022-11-09T12:57:06.477Z,98364.56
2022-11-09T12:59:54.088Z,98361.97
2022-11-09T13:02:29.563Z,98368.94
2022-11-09T13:05:02.468Z,98368.44
2022-11-09T13:07:51.679Z,98364.66
2022-11-09T13:10:26.178Z,98363.63
2022-11-09T13:13:19.025Z,98360.53
2022-11-09T13:16:20.638Z,98366.75
2022-11-09T13:18:51.432Z,98364.03
2022-11-09T13:21:23.700Z,98369.44
2022-11-09T13:24:03.886Z,98368.38
2022-11-09T13:26:32.276Z,98365.16
2022-11-09T13:29:07.540Z,98368.66
2022-11-09T13:32:00.567Z,98364.25
2022-11-09T13:34:47.494Z,98373.72
2022-11-09T13:37:58.193Z,98374.25
2022-11-09T13:40:30.736Z,98371.50
2022-11-09T13:43:04.743Z,98376.09
2022-11-09T13:45:41.453Z,98371.22
2022-11-09T13:48:23.240Z,98380.41
2022-11-09T13:50:58.540Z,98375.78
2022-11-09T13:53:27.958Z,98379.06
2022-11-09T13:55:54.385Z,98377.97
2022-11-09T13:58:41.300Z,98383.94
2022-11-09T14:01:25.818Z,98394.72
2022-11-09T14:03:52.398Z,98393.56
2022-11-09T14:06:19.274Z,98400.34
2022-11-09T14:08:46.872Z,98403.88
2022-11-09T14:11:24.305Z,98396.25
2022-11-09T14:14:29.539Z,98406.84
2022-11-09T14:17:21.240Z,98410.00
2022-11-09T14:19:58.465Z,98407.31
2022-11-09T14:22:25.020Z,98419.53
2022-11-09T14:24:51.521Z,98427.03
2022-11-09T14:27:22.426Z,98429.13
2022-11-09T14:29:59.196Z,98445.50
2022-11-09T14:32:37.252Z,98449.50
2022-11-09T14:35:21.051Z,98456.63
2022-11-09T14:37:52.002Z,98456.19
2022-11-09T14:40:30.815Z,98469.16
2022-11-09T14:43:01.860Z,98477.97
2022-11-09T14:45:29.325Z,98472.22
2022-11-09T14:47:58.856Z,98479.50
2022-11-09T14:50:33.545Z,98483.66
2022-11-09T14:53:01.284Z,98486.88
2022-11-09T14:55:28.455Z,98490.59
2022-11-09T14:57:56.394Z,98487.34
2022-11-09T15:00:26.252Z,98498.94
2022-11-09T15:02:52.729Z,98508.66
2022-11-09T15:05:41.639Z,98503.03
2022-11-09T15:08:18.453Z,98509.44
2022-11-09T15:10:50.642Z,98515.72
2022-11-09T15:13:18.092Z,98513.78
2022-11-09T15:15:52.594Z,98517.03
2022-11-09T15:18:46.868Z,98514.81
2022-11-09T15:21:39.619Z,98522.84
2022-11-09T15:24:08.789Z,98541.13
2022-11-09T15:26:41.550Z,98533.59
2022-11-09T15:29:29.564Z,98536.88
2022-11-09T15:32:17.673Z,98537.94
2022-11-09T15:34:53.063Z,98539.31
2022-11-09T15:37:26.620Z,98537.94
2022-11-09T15:39:53.118Z,98539.56
2022-11-09T15:42:20.557Z,98541.44
2022-11-09T15:44:51.497Z,98532.00
2022-11-09T15:47:27.731Z,98540.91
2022-11-09T15:49:54.300Z,98538.22
2022-11-09T15:52:20.739Z,98539.50
2022-11-09T15:54:47.187Z,98537.38
2022-11-09T15:57:19.338Z,98550.53
2022-11-09T15:59:47.431Z,98547.00
2022-11-09T16:02:14.335Z,98544.97
2022-11-09T16:04:41.600Z,98555.78
2022-11-09T16:07:12.974Z,98556.63
2022-11-09T16:09:40.762Z,98554.72
2022-11-09T16:12:07.315Z,98560.81
2022-11-09T16:14:34.335Z,98565.97
2022-11-09T16:17:00.826Z,98571.00
2022-11-09T16:19:27.244Z,98570.38
2022-11-09T16:21:54.166Z,98569.22
2022-11-09T16:24:20.966Z,98576.41
2022-11-09T16:26:47.835Z,98579.31
2022-11-09T16:29:14.423Z,98580.34
2022-11-09T16:31:51.474Z,98583.63
2022-11-09T16:34:18.579Z,98595.41
2022-11-09T16:36:50.920Z,98594.25
2022-11-09T16:39:20.594Z,98597.41
2022-11-09T16:41:50.053Z,98599.03
2022-11-09T16:44:20.089Z,98606.78
2022-11-09T16:46:48.031Z,98610.13
2022-11-09T16:49:14.853Z,98611.19
2022-11-09T16:51:41.316Z,98604.69
2022-11-09T16:54:07.862Z,98610.25
2022-11-09T16:56:35.322Z,98611.06
2022-11-09T16:59:01.950Z,98608.09
2022-11-09T17:01:28.452Z,98621.84
2022-11-09T17:03:57.010Z,98618.06
2022-11-09T17:06:23.467Z,98625.09
2022-11-09T17:08:50.753Z,98625.72
2022-11-09T17:11:17.576Z,98624.66
2022-11-09T17:13:44.048Z,98644.00
2022-11-09T17:16:12.624Z,98643.47
2022-11-09T17:18:39.074Z,98643.69
2022-11-09T17:21:11.072Z,98638.31
2022-11-09T17:23:38.481Z,98644.50
2022-11-09T17:26:06.903Z,98654.47
2022-11-09T17:28:33.383Z,98650.97
2022-11-09T17:31:00.017Z,98649.72
2022-11-09T17:33:26.703Z,98655.94
2022-11-09T17:36:08.495Z,98652.84
2022-11-09T17:38:35.177Z,98658.16
2022-11-09T17:41:21.886Z,98657.47
2022-11-09T17:43:48.388Z,98648.34
2022-11-09T17:46:20.557Z,98651.06
2022-11-09T17:48:48.471Z,98662.06
2022-11-09T17:51:17.503Z,98658.63
2022-11-09T17:53:44.544Z,98669.19
2022-11-09T17:56:11.751Z,98674.34
2022-11-09T17:58:40.406Z,98671.03
2022-11-09T18:01:08.502Z,98663.78
2022-11-09T18:03:36.484Z,98670.63
2022-11-09T18:06:04.909Z,98676.13
2022-11-09T18:08:31.333Z,98675.00
2022-11-09T18:10:59.240Z,98679.41
2022-11-09T18:13:25.852Z,98679.31
2022-11-09T18:15:52.468Z,98686.34
2022-11-09T18:18:20.088Z,98678.25
2022-11-09T18:20:46.754Z,98680.22
2022-11-09T18:23:13.660Z,98678.94
2022-11-09T18:25:40.148Z,98680.44
2022-11-09T18:28:06.542Z,98681.44
2022-11-09T18:30:32.939Z,98685.00
2022-11-09T18:32:59.411Z,98684.00
2022-11-09T18:35:25.930Z,98692.56
2022-11-09T18:37:52.387Z,98706.63
2022-11-09T18:40:18.858Z,98704.72
2022-11-09T18:42:45.355Z,98705.53
2022-11-09T18:45:11.859Z,98703.09
2022-11-09T18:47:38.316Z,98711.34
2022-11-09T18:50:05.599Z,98708.38
2022-11-09T18:52:33.380Z,98704.16
2022-11-09T18:54:59.979Z,98717.03
2022-11-09T18:57:26.404Z,98719.81
2022-11-09T18:59:52.841Z,98725.69
2022-11-09T19:02:19.349Z,98719.41
2022-11-09T19:04:46.010Z,98722.28
2022-11-09T19:07:12.439Z,98727.31
2022-11-09T19:09:39.172Z,98721.13
2022-11-09T19:12:10.536Z,98724.06
2022-11-09T19:14:40.984Z,98720.50
2022-11-09T19:17:11.840Z,98726.94
2022-11-09T19:19:38.287Z,98739.56
2022-11-09T19:22:13.371Z,98724.06
2022-11-09T19:24:39.764Z,98727.00
2022-11-09T19:27:06.449Z,98728.78
2022-11-09T19:29:32.962Z,98723.09
2022-11-09T19:31:59.473Z,98728.56
2022-11-09T19:34:26.019Z,98736.63
2022-11-09T19:36:52.407Z,98746.34
2022-11-09T19:39:18.868Z,98750.28
2022-11-09T19:41:45.285Z,98760.22
2022-11-09T19:44:15.000Z,98758.69
2022-11-09T19:46:41.474Z,98763.09
2022-11-09T19:49:09.238Z,98762.28
2022-11-09T19:51:36.555Z,98773.75
2022-11-09T19:54:04.538Z,98775.41
2022-11-09T19:56:32.624Z,98780.53
2022-11-09T19:59:01.821Z,98782.91
2022-11-09T20:01:30.360Z,98790.16
2022-11-09T20:03:58.565Z,98793.09
2022-11-09T20:06:25.662Z,98788.19
2022-11-09T20:08:53.829Z,98801.75
2022-11-09T20:11:41.355Z,98796.13
2022-11-09T20:14:09.365Z,98801.28
2022-11-09T20:16:37.709Z,98803.69
2022-11-09T20:19:06.449Z,98809.19
2022-11-09T20:21:32.913Z,98801.38
2022-11-09T20:23:59.394Z,98812.03
2022-11-09T20:26:25.952Z,98815.22
2022-11-09T20:28:53.539Z,98815.13
2022-11-09T20:31:20.870Z,98818.88
2022-11-09T20:33:48.030Z,98816.41
2022-11-09T20:36:15.025Z,98812.69
2022-11-09T20:38:42.006Z,98812.63
2022-11-09T20:41:10.927Z,98816.94
2022-11-09T20:43:38.063Z,98827.38
2022-11-09T20:46:20.276Z,98823.78
2022-11-09T20:48:53.975Z,98830.78
2022-11-09T20:51:21.727Z,98839.59
2022-11-09T20:53:49.656Z,98836.19
2022-11-09T20:56:16.742Z,98840.31
2022-11-09T20:58:43.302Z,98843.41
2022-11-09T21:01:22.036Z,98842.41
2022-11-09T21:03:50.797Z,98840.31
2022-11-09T21:06:17.972Z,98838.09
2022-11-09T21:08:54.389Z,98838.31
2022-11-09T21:11:23.736Z,98850.31
2022-11-09T21:13:51.358Z,98850.56
2022-11-09T21:16:19.292Z,98858.88
2022-11-09T21:18:46.106Z,98857.16
2022-11-09T21:21:15.679Z,98864.75
2022-11-09T21:24:01.020Z,98866.38
2022-11-09T21:26:46.392Z,98872.25
2022-11-09T21:29:34.139Z,98874.94
2022-11-09T21:32:00.808Z,98874.94
2022-11-09T21:34:32.711Z,98880.06
2022-11-09T21:37:01.993Z,98874.34
2022-11-09T21:39:28.409Z,98886.19
2022-11-09T21:41:54.835Z,98887.22
2022-11-09T21:44:21.318Z,98891.56
2022-11-09T21:46:47.839Z,98891.00
2022-11-09T21:49:14.374Z,98898.00
2022-11-09T21:51:41.495Z,98892.88
2022-11-09T21:54:09.170Z,98898.59
2022-11-09T21:56:35.728Z,98899.19
2022-11-09T21:59:02.185Z,98907.34
2022-11-09T22:01:28.646Z,98911.34
2022-11-09T22:03:55.312Z,98901.28
2022-11-09T22:06:22.015Z,98902.34
2022-11-09T22:08:48.859Z,98912.88
2022-11-09T22:11:17.619Z,98915.31
2022-11-09T22:14:02.902Z,98910.75
2022-11-09T22:16:34.128Z,98917.44
2022-11-09T22:19:29.933Z,98913.78
2022-11-09T22:21:56.483Z,98916.94
2022-11-09T22:24:22.903Z,98917.53
2022-11-09T22:26:49.327Z,98920.56
2022-11-09T22:29:15.722Z,98923.50
2022-11-09T22:31:42.168Z,98927.03
2022-11-09T22:34:08.615Z,98927.16
2022-11-09T22:36:35.041Z,98928.78
2022-11-09T22:39:01.490Z,98933.59
2022-11-09T22:41:27.878Z,98932.44
2022-11-09T22:43:56.472Z,98933.00
2022-11-09T22:46:22.922Z,98935.69
2022-11-09T22:48:49.633Z,98939.22
2022-11-09T22:51:17.642Z,98941.66
2022-11-09T22:53:47.916Z,98949.25
2022-11-09T22:56:14.327Z,98944.94
2022-11-09T22:58:40.736Z,98954.66
2022-11-09T23:01:18.556Z,98951.41
2022-11-09T23:03:45.644Z,98955.72
2022-11-09T23:06:22.267Z,98958.88
2022-11-09T23:08:48.981Z,98965.91
2022-11-09T23:11:19.000Z,98972.94
2022-11-09T23:13:49.191Z,98967.56
2022-11-09T23:16:16.000Z,98970.81
2022-11-09T23:18:54.297Z,98972.47
2022-11-09T23:21:20.722Z,98980.44
2022-11-09T23:23:47.955Z,98985.09
2022-11-09T23:26:15.020Z,98984.84
2022-11-09T23:28:41.755Z,98985.34
2022-11-09T23:31:10.880Z,98983.72
2022-11-09T23:33:38.116Z,98991.19
2022-11-09T23:36:06.062Z,98991.19
2022-11-09T23:38:33.907Z,98985.00
2022-11-09T23:41:04.938Z,98992.22
2022-11-09T23:43:31.640Z,98989.09
2022-11-09T23:46:06.513Z,98990.72
2022-11-09T23:48:33.087Z,98992.34
2022-11-09T23:51:00.876Z,98990.25
2022-11-09T23:53:28.927Z,98991.88
2022-11-09T23:56:00.784Z,98992.34
2022-11-09T23:58:27.268Z,99003.25
